Time;durP1;ratioP1;P1;durP2;ratioP2;P2;SDS_P1;SDS_P2;PMS_P1;PMS_P2;Temp;Humidity;BMP_temperature;BMP_pressure;BME280_temperature;BME280_humidity;BME280_pressure;Samples;Min_cycle;Max_cycle;Signal;HPM_P1;HPM_P2
2021/12/26 00:01:20;;;;;;;0.73;0.45;;;18.60;62.80;;;;;;5125292;28;20041;-40
2021/12/26 00:03:46;;;;;;;0.82;0.40;;;18.60;62.60;;;;;;5126158;28;20031;-40
2021/12/26 00:06:18;;;;;;;0.40;0.38;;;18.60;62.60;;;;;;5126215;28;20138;-40
2021/12/26 00:08:45;;;;;;;0.45;0.45;;;18.70;62.40;;;;;;5119850;27;20031;-41
2021/12/26 00:11:11;;;;;;;0.50;0.40;;;18.60;62.30;;;;;;5106055;28;20024;-40
2021/12/26 00:13:37;;;;;;;0.30;0.30;;;18.60;62.20;;;;;;5117848;28;20031;-41
2021/12/26 00:16:04;;;;;;;0.93;0.40;;;18.60;62.20;;;;;;5126134;28;20054;-40
2021/12/26 00:18:30;;;;;;;0.55;0.40;;;18.70;62.30;;;;;;5125697;28;20102;-40
2021/12/26 00:20:56;;;;;;;0.80;0.45;;;18.70;62.20;;;;;;5126127;28;20040;-41
2021/12/26 00:23:22;;;;;;;0.77;0.50;;;18.60;62.10;;;;;;5126067;28;20106;-41
2021/12/26 00:25:49;;;;;;;0.30;0.30;;;18.70;62.30;;;;;;5125876;28;20116;-40
2021/12/26 00:28:15;;;;;;;0.52;0.30;;;18.70;62.20;;;;;;5125731;27;20019;-41
2021/12/26 00:30:42;;;;;;;0.43;0.30;;;18.70;62.20;;;;;;5125926;28;20027;-41
2021/12/26 00:33:08;;;;;;;0.63;0.35;;;18.70;62.20;;;;;;5124346;28;20027;-43
2021/12/26 00:35:34;;;;;;;0.70;0.40;;;18.60;62.10;;;;;;5125759;28;20065;-42
2021/12/26 00:38:00;;;;;;;0.57;0.30;;;18.70;62.30;;;;;;5125361;28;20015;-40
2021/12/26 00:40:26;;;;;;;0.82;0.50;;;18.70;62.40;;;;;;5124770;28;20549;-41
2021/12/26 00:42:53;;;;;;;0.50;0.40;;;18.70;62.50;;;;;;5118446;28;20035;-40
2021/12/26 00:45:19;;;;;;;0.80;0.40;;;18.60;62.60;;;;;;5105123;28;20036;-41
2021/12/26 00:47:46;;;;;;;0.50;0.40;;;18.70;62.60;;;;;;5104851;28;20029;-40
2021/12/26 00:50:21;;;;;;;0.75;0.50;;;18.70;62.60;;;;;;5104820;28;20044;-40
2021/12/26 00:52:47;;;;;;;0.47;0.40;;;18.70;62.60;;;;;;5105126;28;20039;-41
2021/12/26 00:55:14;;;;;;;0.73;0.57;;;18.70;62.40;;;;;;5104933;28;20024;-40
2021/12/26 00:57:40;;;;;;;0.75;0.50;;;18.70;62.30;;;;;;5124297;28;20032;-41
2021/12/26 01:00:08;;;;;;;0.85;0.40;;;18.70;62.20;;;;;;5125172;28;20464;-40
2021/12/26 01:02:34;;;;;;;1.13;0.55;;;18.70;62.30;;;;;;5125083;28;20669;-40
2021/12/26 01:05:00;;;;;;;0.60;0.50;;;18.70;62.40;;;;;;5124822;28;20091;-42
2021/12/26 01:07:42;;;;;;;0.38;0.20;;;18.70;62.30;;;;;;5125220;28;20020;-41
2021/12/26 01:10:09;;;;;;;1.02;0.40;;;18.70;62.30;;;;;;5123753;27;20885;-42
2021/12/26 01:12:36;;;;;;;0.60;0.32;;;18.70;63.10;;;;;;5122854;28;20031;-41
2021/12/26 01:15:06;;;;;;;;;;;18.70;62.30;;;;;;5125796;28;20075;-42
2021/12/26 01:17:34;;;;;;;1.02;0.50;;;18.70;62.20;;;;;;5124691;28;19927;-40
2021/12/26 01:20:03;;;;;;;0.70;0.55;;;18.70;62.10;;;;;;5124956;28;20027;-40
2021/12/26 01:22:29;;;;;;;0.52;0.40;;;18.70;62.10;;;;;;5125060;28;20059;-41
2021/12/26 01:24:59;;;;;;;0.60;0.30;;;18.70;62.30;;;;;;5124729;28;20118;-40
2021/12/26 01:27:26;;;;;;;0.57;0.32;;;18.70;62.30;;;;;;5124641;28;20016;-40
2021/12/26 01:29:52;;;;;;;0.57;0.38;;;18.70;62.30;;;;;;5124544;27;20111;-43
2021/12/26 01:32:19;;;;;;;0.50;0.32;;;18.70;62.40;;;;;;5124715;28;20038;-40
2021/12/26 01:34:45;;;;;;;0.63;0.40;;;18.70;62.40;;;;;;5124919;28;20020;-41
2021/12/26 01:37:11;;;;;;;0.47;0.40;;;18.70;62.40;;;;;;5124554;28;20041;-40
2021/12/26 01:39:37;;;;;;;0.70;0.50;;;18.70;62.50;;;;;;5123448;28;20353;-43
2021/12/26 01:42:04;;;;;;;0.40;0.40;;;18.70;62.50;;;;;;5124391;28;20078;-40
2021/12/26 01:44:31;;;;;;;0.60;0.50;;;18.70;62.50;;;;;;5124549;28;20073;-41
2021/12/26 01:46:57;;;;;;;1.17;0.40;;;18.70;62.30;;;;;;5124550;28;20034;-42
2021/12/26 01:49:25;;;;;;;0.90;0.50;;;18.70;62.30;;;;;;5123691;28;20020;-40
2021/12/26 01:51:54;;;;;;;0.85;0.40;;;18.70;62.30;;;;;;5124403;28;20353;-40
2021/12/26 01:57:20;;;;;;;0.50;0.50;;;18.70;62.20;;;;;;5084741;28;20123;-40
2021/12/26 01:59:47;;;;;;;1.30;0.50;;;18.60;62.20;;;;;;5086749;28;20031;-43
2021/12/26 02:02:13;;;;;;;1.00;0.55;;;18.60;62.30;;;;;;5099663;28;20088;-41
2021/12/26 02:04:39;;;;;;;0.80;0.50;;;18.70;62.30;;;;;;5100821;28;20061;-41
2021/12/26 02:07:07;;;;;;;1.35;0.57;;;18.60;62.20;;;;;;5101083;28;20040;-41
2021/12/26 02:09:33;;;;;;;0.75;0.43;;;18.60;62.20;;;;;;5087419;28;20059;-42
2021/12/26 02:11:59;;;;;;;2.22;0.70;;;18.70;62.30;;;;;;5080623;28;20078;-43
2021/12/26 02:14:25;;;;;;;0.52;0.50;;;18.60;62.20;;;;;;5100865;28;20028;-40
2021/12/26 02:16:52;;;;;;;0.43;0.43;;;18.60;62.30;;;;;;5100765;28;20032;-41
2021/12/26 02:19:18;;;;;;;0.45;0.35;;;18.70;62.30;;;;;;5100488;28;20036;-41
2021/12/26 02:22:00;;;;;;;0.50;0.40;;;18.60;62.30;;;;;;5099148;28;20028;-42
2021/12/26 02:24:33;;;;;;;1.20;0.47;;;18.60;62.40;;;;;;5080307;28;20063;-41
2021/12/26 02:29:44;;;;;;;0.70;0.55;;;18.60;62.30;;;;;;5100707;28;20042;-41
2021/12/26 02:32:10;;;;;;;0.50;0.50;;;18.60;62.20;;;;;;5104849;28;20036;-41
2021/12/26 02:34:36;;;;;;;0.45;0.40;;;18.60;62.20;;;;;;5123333;28;20032;-40
2021/12/26 02:37:03;;;;;;;0.70;0.40;;;18.60;62.10;;;;;;5123586;28;20047;-40
2021/12/26 02:39:32;;;;;;;0.60;0.40;;;18.60;62.20;;;;;;5122457;28;20035;-40
2021/12/26 02:41:59;;;;;;;0.88;0.50;;;18.60;62.30;;;;;;5123322;28;20042;-41
2021/12/26 02:44:25;;;;;;;;;;;18.60;62.40;;;;;;5103782;28;20032;-40
2021/12/26 02:46:51;;;;;;;0.70;0.57;;;18.60;62.50;;;;;;5103121;28;20394;-42
2021/12/26 02:49:25;;;;;;;1.08;0.75;;;18.60;62.50;;;;;;5102780;28;20024;-41
2021/12/26 02:51:51;;;;;;;0.85;0.50;;;18.60;62.50;;;;;;5102854;28;20060;-40
2021/12/26 02:54:17;;;;;;;0.50;0.50;;;18.60;62.50;;;;;;5102769;28;20043;-41
2021/12/26 02:56:44;;;;;;;0.50;0.45;;;18.60;62.40;;;;;;5114179;28;20027;-41
2021/12/26 02:59:10;;;;;;;0.70;0.50;;;18.60;62.30;;;;;;5121789;28;20031;-40
2021/12/26 03:01:36;;;;;;;1.42;0.55;;;18.60;62.50;;;;;;5122488;28;20650;-40
2021/12/26 03:04:04;;;;;;;0.77;0.57;;;18.60;62.50;;;;;;5122825;28;20031;-43
2021/12/26 03:06:48;;;;;;;0.57;0.40;;;18.60;62.50;;;;;;5122064;28;20036;-40
2021/12/26 03:09:14;;;;;;;0.47;0.38;;;18.60;62.30;;;;;;5122560;28;20089;-43
2021/12/26 03:11:44;;;;;;;0.70;0.47;;;18.60;62.20;;;;;;5123022;28;20027;-41
2021/12/26 03:14:10;;;;;;;0.70;0.40;;;18.60;62.20;;;;;;5104915;28;20024;-40
2021/12/26 03:16:36;;;;;;;1.05;0.40;;;18.60;62.10;;;;;;5102497;28;20034;-40
2021/12/26 03:19:02;;;;;;;0.60;0.47;;;18.60;62.30;;;;;;5102503;28;20686;-40
2021/12/26 03:21:29;;;;;;;1.45;0.70;;;18.60;62.00;;;;;;5102552;28;20032;-40
2021/12/26 03:23:57;;;;;;;0.85;0.60;;;18.60;62.10;;;;;;5102672;28;20020;-40
2021/12/26 03:26:23;;;;;;;1.00;0.50;;;18.50;62.10;;;;;;5111031;28;20039;-41
2021/12/26 03:28:49;;;;;;;0.68;0.40;;;18.60;62.20;;;;;;5122936;28;20042;-40
2021/12/26 03:31:15;;;;;;;0.80;0.55;;;18.50;62.10;;;;;;5122682;28;20074;-41
2021/12/26 03:33:41;;;;;;;0.70;0.40;;;18.50;62.20;;;;;;5122763;28;20039;-40
2021/12/26 03:36:07;;;;;;;0.45;0.43;;;18.50;62.10;;;;;;5122675;28;20108;-41
2021/12/26 03:38:34;;;;;;;0.50;0.40;;;18.50;62.20;;;;;;5118166;28;20024;-41
2021/12/26 03:41:00;;;;;;;0.80;0.60;;;18.50;62.20;;;;;;5102159;28;20028;-40
2021/12/26 03:43:26;;;;;;;0.90;0.60;;;18.50;62.30;;;;;;5114411;28;20127;-41
2021/12/26 03:45:53;;;;;;;0.73;0.50;;;18.50;62.20;;;;;;5122747;28;20039;-40
2021/12/26 03:48:20;;;;;;;0.93;0.40;;;18.50;62.20;;;;;;5122669;28;20609;-41
2021/12/26 03:50:46;;;;;;;0.38;0.35;;;18.50;62.10;;;;;;5122376;28;20066;-40
2021/12/26 03:53:13;;;;;;;0.80;0.70;;;18.50;62.20;;;;;;5122727;28;20035;-43
2021/12/26 03:55:39;;;;;;;1.13;0.70;;;18.50;62.20;;;;;;5122369;28;20032;-41
2021/12/26 03:58:05;;;;;;;0.40;0.35;;;18.50;62.20;;;;;;5122585;28;20032;-40
2021/12/26 04:00:32;;;;;;;0.80;0.50;;;18.50;62.20;;;;;;5122709;28;20031;-40
2021/12/26 04:02:58;;;;;;;0.82;0.50;;;18.50;62.10;;;;;;5121810;28;20019;-44
2021/12/26 04:05:24;;;;;;;1.52;0.65;;;18.50;62.10;;;;;;5122924;28;20046;-40
2021/12/26 04:07:50;;;;;;;0.80;0.50;;;18.50;62.10;;;;;;5122582;28;20062;-40
2021/12/26 04:10:17;;;;;;;1.02;0.60;;;18.50;62.00;;;;;;5103176;28;20062;-40
2021/12/26 04:12:47;;;;;;;0.60;0.40;;;18.50;62.00;;;;;;5102030;28;20050;-40
2021/12/26 04:15:15;;;;;;;0.60;0.50;;;18.40;61.90;;;;;;5102272;28;20032;-40
2021/12/26 04:17:41;;;;;;;0.82;0.50;;;18.50;62.00;;;;;;5106132;28;20026;-41
2021/12/26 04:20:07;;;;;;;0.82;0.50;;;18.40;62.00;;;;;;5126197;28;20543;-41
2021/12/26 04:22:33;;;;;;;1.23;0.50;;;18.40;62.10;;;;;;5126111;28;20019;-40
2021/12/26 04:25:00;;;;;;;0.80;0.50;;;18.40;62.10;;;;;;5126134;28;20752;-40
2021/12/26 04:27:26;;;;;;;0.60;0.50;;;18.50;62.10;;;;;;5108728;28;20040;-40
2021/12/26 04:29:52;;;;;;;0.80;0.50;;;18.40;62.00;;;;;;5112784;28;20085;-40
2021/12/26 04:32:18;;;;;;;0.75;0.50;;;18.40;62.10;;;;;;5125785;28;20023;-41
2021/12/26 04:34:45;;;;;;;0.65;0.43;;;18.50;62.10;;;;;;5125908;28;20484;-40
2021/12/26 04:37:11;;;;;;;0.98;0.60;;;18.40;62.00;;;;;;5124623;28;20036;-41
2021/12/26 04:39:37;;;;;;;1.15;0.47;;;18.50;62.20;;;;;;5112639;28;20028;-41
2021/12/26 04:42:03;;;;;;;0.95;0.60;;;18.40;62.10;;;;;;5105399;28;20042;-40
2021/12/26 04:44:29;;;;;;;0.40;0.30;;;18.40;62.10;;;;;;5105476;28;20020;-40
2021/12/26 04:46:56;;;;;;;0.65;0.50;;;18.40;62.20;;;;;;5105438;28;20198;-40
2021/12/26 04:49:22;;;;;;;0.70;0.50;;;18.40;62.10;;;;;;5105073;28;20897;-41
2021/12/26 04:51:48;;;;;;;0.80;0.60;;;18.40;62.20;;;;;;5105045;28;20039;-41
2021/12/26 04:54:14;;;;;;;1.08;0.52;;;18.40;62.20;;;;;;5105258;28;20031;-40
2021/12/26 04:56:40;;;;;;;0.65;0.63;;;18.40;62.10;;;;;;5116363;28;20138;-40
2021/12/26 04:59:06;;;;;;;1.00;0.40;;;18.40;62.00;;;;;;5125444;28;20024;-40
2021/12/26 05:01:32;;;;;;;1.38;0.60;;;18.40;62.00;;;;;;5125164;28;20028;-41
2021/12/26 05:03:58;;;;;;;0.85;0.50;;;18.40;62.00;;;;;;5125154;28;20693;-40
2021/12/26 05:06:27;;;;;;;0.85;0.50;;;18.40;61.90;;;;;;5125095;28;20036;-42
2021/12/26 05:08:53;;;;;;;0.85;0.50;;;18.30;61.90;;;;;;5117129;28;20420;-40
2021/12/26 05:11:19;;;;;;;0.90;0.50;;;18.40;62.00;;;;;;5105103;28;20025;-40
2021/12/26 05:13:45;;;;;;;2.28;0.55;;;18.40;62.00;;;;;;5119488;28;20058;-40
2021/12/26 05:16:12;;;;;;;0.45;0.45;;;18.40;61.90;;;;;;5125408;28;20024;-40
2021/12/26 05:18:38;;;;;;;0.50;0.43;;;18.40;62.00;;;;;;5125083;28;20027;-40
2021/12/26 05:21:04;;;;;;;0.70;0.40;;;18.30;61.90;;;;;;5125130;28;20091;-42
2021/12/26 05:23:30;;;;;;;1.27;0.50;;;18.30;61.90;;;;;;5124998;28;20084;-40
2021/12/26 05:25:56;;;;;;;1.20;0.50;;;18.40;62.10;;;;;;5120283;28;20047;-40
2021/12/26 05:28:22;;;;;;;0.43;0.40;;;18.30;62.00;;;;;;5110007;28;20019;-42
2021/12/26 05:30:48;;;;;;;0.65;0.40;;;18.30;61.90;;;;;;5124047;27;20028;-41
2021/12/26 05:33:14;;;;;;;0.50;0.40;;;18.30;62.00;;;;;;5124330;28;20027;-40
2021/12/26 05:35:41;;;;;;;0.80;0.50;;;18.30;62.00;;;;;;5124985;28;20031;-40
2021/12/26 05:38:08;;;;;;;0.90;0.52;;;18.30;62.10;;;;;;5123772;28;20055;-41
2021/12/26 05:40:34;;;;;;;0.90;0.50;;;18.30;62.00;;;;;;5104335;28;20036;-41
2021/12/26 05:43:00;;;;;;;0.47;0.40;;;18.30;62.10;;;;;;5112385;28;20030;-41
2021/12/26 05:45:26;;;;;;;0.52;0.43;;;18.30;62.10;;;;;;5124525;28;20760;-39
2021/12/26 05:47:52;;;;;;;1.98;0.70;;;18.30;62.10;;;;;;5124485;28;20059;-41
2021/12/26 05:50:19;;;;;;;0.45;0.45;;;18.30;62.10;;;;;;5124264;28;20079;-42
2021/12/26 05:52:45;;;;;;;;;;;18.30;62.00;;;;;;5124759;28;20020;-40
2021/12/26 05:55:11;;;;;;;0.90;0.40;;;18.30;62.10;;;;;;5124162;28;19904;-41
2021/12/26 05:57:37;;;;;;;0.52;0.40;;;18.30;62.00;;;;;;5104346;28;20024;-41
2021/12/26 06:00:06;;;;;;;0.88;0.52;;;18.30;62.00;;;;;;5112571;28;20030;-41
2021/12/26 06:02:32;;;;;;;1.00;0.50;;;18.20;61.90;;;;;;5124294;28;20032;-41
2021/12/26 06:04:58;;;;;;;0.50;0.40;;;18.30;62.00;;;;;;5123401;28;20039;-41
2021/12/26 06:07:24;;;;;;;0.70;0.50;;;18.20;62.00;;;;;;5124131;28;20055;-40
2021/12/26 06:09:50;;;;;;;1.02;0.50;;;18.30;61.90;;;;;;5123426;28;20039;-40
2021/12/26 06:12:17;;;;;;;0.80;0.55;;;18.20;61.90;;;;;;5121992;28;20081;-40
2021/12/26 06:14:43;;;;;;;1.20;0.52;;;18.20;62.00;;;;;;5103799;28;20031;-40
2021/12/26 06:17:09;;;;;;;0.60;0.50;;;18.20;62.00;;;;;;5103593;28;20043;-40
2021/12/26 06:19:35;;;;;;;0.80;0.50;;;18.20;62.00;;;;;;5103379;28;20091;-41
2021/12/26 06:22:03;;;;;;;0.68;0.40;;;18.20;62.00;;;;;;5103667;28;20047;-40
2021/12/26 06:24:30;;;;;;;0.90;0.50;;;18.20;62.10;;;;;;5103700;28;20127;-41
2021/12/26 06:26:56;;;;;;;4.35;0.75;;;18.20;62.10;;;;;;5106965;28;20039;-40
2021/12/26 06:29:22;;;;;;;1.20;0.60;;;18.20;62.10;;;;;;5106388;28;20059;-40
2021/12/26 06:31:48;;;;;;;0.30;0.30;;;18.20;62.10;;;;;;5123544;28;20024;-41
2021/12/26 06:34:14;;;;;;;1.40;0.40;;;18.20;62.10;;;;;;5123667;28;20035;-40
2021/12/26 06:36:41;;;;;;;0.68;0.47;;;18.20;62.00;;;;;;5123493;28;20054;-41
2021/12/26 06:39:07;;;;;;;0.40;0.40;;;18.20;62.10;;;;;;5114257;28;20032;-40
2021/12/26 06:41:33;;;;;;;0.65;0.47;;;18.20;62.00;;;;;;5103089;28;20036;-40
2021/12/26 06:43:59;;;;;;;0.50;0.50;;;18.20;62.10;;;;;;5103209;28;20023;-40
2021/12/26 06:46:26;;;;;;;0.73;0.60;;;18.20;62.00;;;;;;5103042;28;20032;-40
2021/12/26 06:48:52;;;;;;;1.60;0.45;;;18.20;62.10;;;;;;5102932;28;20614;-40
2021/12/26 06:51:19;;;;;;;0.75;0.60;;;18.20;62.00;;;;;;5102875;28;20081;-41
2021/12/26 06:53:45;;;;;;;0.85;0.50;;;18.20;62.00;;;;;;5103181;28;20016;-40
2021/12/26 06:56:11;;;;;;;1.02;0.50;;;18.20;62.10;;;;;;5109707;28;20023;-42
2021/12/26 06:58:37;;;;;;;0.47;0.45;;;18.20;62.10;;;;;;5123481;28;20077;-41
2021/12/26 07:01:03;;;;;;;1.23;0.70;;;18.20;62.10;;;;;;5115230;28;20105;-40
2021/12/26 07:03:29;;;;;;;0.60;0.30;;;18.20;62.10;;;;;;5102691;28;20024;-40
2021/12/26 07:05:56;;;;;;;0.82;0.57;;;18.20;62.10;;;;;;5102335;28;20365;-41
2021/12/26 07:08:22;;;;;;;1.05;0.70;;;18.20;62.10;;;;;;5105347;28;20163;-39
2021/12/26 07:10:48;;;;;;;0.85;0.47;;;18.10;62.10;;;;;;5123153;28;20091;-41
2021/12/26 07:13:14;;;;;;;0.75;0.52;;;18.10;62.10;;;;;;5112566;28;20484;-40
2021/12/26 07:15:40;;;;;;;0.82;0.50;;;18.10;62.20;;;;;;5106950;28;20053;-41
2021/12/26 07:18:06;;;;;;;1.65;0.63;;;18.10;62.20;;;;;;5102470;28;20130;-41
2021/12/26 07:20:33;;;;;;;1.20;0.60;;;18.10;62.20;;;;;;5102572;28;20058;-42
2021/12/26 07:23:00;;;;;;;0.57;0.52;;;18.10;62.30;;;;;;5114644;28;20028;-41
2021/12/26 07:25:26;;;;;;;0.68;0.40;;;18.10;62.20;;;;;;5123043;28;20039;-40
2021/12/26 07:27:52;;;;;;;0.70;0.40;;;18.10;62.30;;;;;;5122913;28;20043;-41
2021/12/26 07:30:18;;;;;;;0.55;0.40;;;18.10;62.20;;;;;;5122922;28;20110;-40
2021/12/26 07:32:44;;;;;;;0.90;0.50;;;18.10;62.20;;;;;;5122740;28;20027;-40
2021/12/26 07:35:10;;;;;;;0.85;0.50;;;18.10;62.20;;;;;;5122769;28;20845;-40
2021/12/26 07:37:37;;;;;;;1.25;0.70;;;18.00;62.20;;;;;;5121294;28;20032;-40
2021/12/26 07:40:04;;;;;;;0.40;0.40;;;18.10;62.20;;;;;;5105547;28;20032;-40
2021/12/26 07:42:30;;;;;;;1.10;0.43;;;18.10;62.00;;;;;;5102457;28;20032;-40
2021/12/26 07:44:56;;;;;;;0.60;0.40;;;18.10;62.20;;;;;;5102463;28;20036;-40
2021/12/26 07:47:23;;;;;;;0.40;0.40;;;18.10;62.10;;;;;;5115628;28;20110;-41
2021/12/26 07:49:49;;;;;;;0.55;0.32;;;18.10;62.10;;;;;;5122502;28;20043;-41
2021/12/26 07:52:22;;;;;;;1.13;0.50;;;18.10;62.20;;;;;;5122788;28;20106;-40
2021/12/26 07:54:48;;;;;;;3.03;0.40;;;18.00;62.30;;;;;;5126619;28;20023;-40
2021/12/26 07:57:15;;;;;;;0.60;0.50;;;18.00;63.00;;;;;;5126448;28;20034;-41
2021/12/26 07:59:41;;;;;;;0.65;0.40;;;18.00;62.20;;;;;;5126707;28;20032;-40
2021/12/26 08:02:07;;;;;;;0.80;0.60;;;18.00;62.20;;;;;;5126409;28;20035;-40
2021/12/26 08:04:33;;;;;;;2.03;0.55;;;18.00;62.30;;;;;;5124964;28;20028;-41
2021/12/26 08:07:00;;;;;;;1.02;0.50;;;18.00;62.30;;;;;;5126368;28;20093;-40
2021/12/26 08:09:26;;;;;;;1.58;0.50;;;18.00;62.30;;;;;;5124960;28;20250;-40
2021/12/26 08:11:52;;;;;;;1.25;0.50;;;18.00;62.30;;;;;;5126440;28;20031;-42
2021/12/26 08:14:19;;;;;;;1.33;0.50;;;18.00;62.30;;;;;;5107102;27;20028;-41
2021/12/26 08:16:45;;;;;;;1.35;0.60;;;18.00;62.30;;;;;;5105567;28;20088;-40
2021/12/26 08:19:11;;;;;;;0.50;0.50;;;18.00;62.30;;;;;;5105650;28;20030;-40
2021/12/26 08:21:37;;;;;;;1.08;0.47;;;17.90;62.30;;;;;;5106045;28;20135;-42
2021/12/26 08:24:03;;;;;;;0.98;0.60;;;18.00;62.30;;;;;;5105835;28;20032;-41
2021/12/26 08:26:32;;;;;;;1.23;0.70;;;17.90;62.30;;;;;;5105620;28;20043;-40
2021/12/26 08:28:59;;;;;;;1.42;0.60;;;17.90;62.20;;;;;;5108033;28;20053;-41
2021/12/26 08:31:25;;;;;;;0.83;0.60;;;17.90;62.20;;;;;;5126115;28;20055;-41
2021/12/26 08:33:51;;;;;;;1.13;0.70;;;17.90;62.20;;;;;;5125598;28;20038;-42
2021/12/26 08:36:21;;;;;;;0.80;0.52;;;17.90;62.20;;;;;;5125829;27;20602;-42
2021/12/26 08:38:47;;;;;;;0.68;0.50;;;17.90;62.20;;;;;;5124731;28;20032;-40
2021/12/26 08:41:13;;;;;;;1.52;0.60;;;17.90;62.20;;;;;;5125725;28;20035;-40
2021/12/26 08:43:42;;;;;;;1.15;0.57;;;17.90;62.30;;;;;;5111916;28;20085;-40
2021/12/26 08:46:09;;;;;;;0.90;0.50;;;17.90;62.30;;;;;;5105330;28;20047;-40
2021/12/26 08:48:35;;;;;;;0.95;0.70;;;17.90;62.40;;;;;;5104810;28;20032;-41
2021/12/26 08:51:01;;;;;;;1.60;0.60;;;17.90;62.30;;;;;;5105101;28;20063;-41
2021/12/26 08:53:27;;;;;;;0.88;0.50;;;17.90;62.30;;;;;;5105104;28;20023;-40
2021/12/26 08:55:54;;;;;;;0.90;0.50;;;17.90;62.30;;;;;;5105162;28;20024;-40
2021/12/26 08:58:20;;;;;;;0.80;0.45;;;17.80;62.30;;;;;;5104962;28;20047;-41
2021/12/26 09:00:46;;;;;;;0.90;0.50;;;17.90;62.40;;;;;;5119859;28;20119;-40
2021/12/26 09:03:12;;;;;;;1.00;0.45;;;17.90;62.40;;;;;;5125334;28;20087;-41
2021/12/26 09:05:39;;;;;;;1.65;0.57;;;17.80;62.30;;;;;;5123651;28;20063;-41
2021/12/26 09:08:07;;;;;;;1.27;0.60;;;17.80;62.60;;;;;;5124217;28;20047;-41
2021/12/26 09:10:34;;;;;;;1.20;0.50;;;17.80;62.30;;;;;;5105202;28;20028;-42
2021/12/26 09:13:00;;;;;;;0.90;0.47;;;17.80;62.30;;;;;;5124021;28;20049;-40
2021/12/26 09:15:26;;;;;;;1.13;0.57;;;17.80;62.30;;;;;;5124947;28;20058;-40
2021/12/26 09:17:52;;;;;;;0.65;0.50;;;17.80;62.30;;;;;;5124651;28;20079;-40
2021/12/26 09:20:19;;;;;;;0.83;0.40;;;17.80;62.40;;;;;;5123425;28;20469;-41
2021/12/26 09:22:45;;;;;;;2.95;0.60;;;17.80;62.30;;;;;;5125101;28;20024;-42
2021/12/26 09:25:11;;;;;;;2.25;0.60;;;17.80;62.40;;;;;;5124908;28;20416;-40
2021/12/26 09:27:37;;;;;;;1.30;0.80;;;17.80;62.40;;;;;;5124586;28;20035;-41
2021/12/26 09:30:06;;;;;;;0.50;0.45;;;17.80;62.40;;;;;;5124972;28;20028;-41
2021/12/26 09:32:33;;;;;;;0.73;0.43;;;17.80;62.30;;;;;;5124776;28;20113;-40
2021/12/26 09:34:59;;;;;;;0.88;0.68;;;17.80;62.40;;;;;;5124370;28;20030;-40
2021/12/26 09:37:25;;;;;;;0.98;0.50;;;17.80;62.50;;;;;;5124886;27;20650;-41
2021/12/26 09:39:53;;;;;;;2.35;0.68;;;17.70;62.30;;;;;;5123399;28;20057;-40
2021/12/26 09:42:19;;;;;;;;;;;17.70;62.40;;;;;;5124859;28;20020;-42
2021/12/26 09:44:46;;;;;;;0.88;0.50;;;17.70;62.60;;;;;;5124075;28;19903;-40
2021/12/26 09:47:13;;;;;;;0.70;0.60;;;17.70;62.50;;;;;;5124262;28;20055;-40
2021/12/26 09:49:39;;;;;;;2.80;0.68;;;17.70;62.60;;;;;;5123827;28;20036;-41
2021/12/26 09:52:06;;;;;;;1.70;0.60;;;17.70;62.60;;;;;;5124545;27;20180;-41
2021/12/26 09:54:32;;;;;;;0.40;0.40;;;17.70;62.50;;;;;;5124538;28;20028;-41
2021/12/26 09:56:58;;;;;;;1.35;0.70;;;17.70;62.50;;;;;;5110857;28;20036;-42
2021/12/26 09:59:27;;;;;;;1.13;0.50;;;17.70;62.50;;;;;;5106610;28;20041;-40
2021/12/26 10:02:00;;;;;;;1.58;0.65;;;17.70;62.50;;;;;;5124111;28;20043;-40
2021/12/26 10:04:27;;;;;;;1.33;0.55;;;17.70;62.50;;;;;;5123763;28;20480;-40
2021/12/26 10:07:14;;;;;;;1.67;0.60;;;17.70;62.50;;;;;;5124228;28;20039;-40
2021/12/26 10:09:44;;;;;;;1.10;0.50;;;17.70;62.50;;;;;;5109564;28;20044;-41
2021/12/26 10:12:13;;;;;;;0.80;0.68;;;17.60;62.40;;;;;;5120847;28;20032;-41
2021/12/26 10:14:39;;;;;;;1.65;0.43;;;17.60;62.50;;;;;;5123790;28;20027;-40
2021/12/26 10:17:14;;;;;;;0.63;0.50;;;17.60;62.40;;;;;;5123523;28;20028;-40
2021/12/26 10:19:41;;;;;;;0.98;0.52;;;17.60;62.50;;;;;;5123233;28;20024;-40
2021/12/26 10:22:08;;;;;;;0.90;0.50;;;17.60;62.50;;;;;;5123880;28;20793;-41
2021/12/26 10:24:39;;;;;;;0.40;0.40;;;17.60;62.60;;;;;;5123870;28;20023;-41
2021/12/26 10:27:26;;;;;;;1.38;0.75;;;17.60;62.60;;;;;;5123227;28;20099;-40
2021/12/26 10:29:57;;;;;;;2.47;0.57;;;17.60;62.60;;;;;;5123514;28;20437;-41
2021/12/26 10:32:25;;;;;;;1.48;0.40;;;17.60;63.30;;;;;;5123692;28;20030;-40
2021/12/26 10:34:58;;;;;;;0.98;0.70;;;17.60;62.60;;;;;;5105748;28;20056;-40
2021/12/26 10:37:28;;;;;;;2.22;0.57;;;17.60;62.60;;;;;;5103085;28;20036;-42
2021/12/26 10:39:56;;;;;;;1.08;0.70;;;17.60;62.60;;;;;;5119160;28;20500;-41
2021/12/26 10:42:28;;;;;;;1.95;0.47;;;17.60;62.50;;;;;;5120311;28;20036;-40
2021/12/26 10:44:59;;;;;;;1.13;0.60;;;17.60;63.10;;;;;;5119866;28;20051;-41
2021/12/26 10:47:28;;;;;;;0.77;0.40;;;17.70;63.00;;;;;;5123250;28;20129;-41
2021/12/26 10:49:58;;;;;;;0.60;0.47;;;17.70;63.00;;;;;;5122398;28;20051;-41
2021/12/26 10:52:31;;;;;;;0.50;0.40;;;17.70;63.60;;;;;;5123255;28;20114;-40
2021/12/26 10:55:05;;;;;;;0.77;0.63;;;17.60;63.50;;;;;;5123207;28;20108;-40
2021/12/26 10:57:37;;;;;;;0.75;0.50;;;17.60;63.50;;;;;;5123066;28;20024;-40
2021/12/26 11:00:12;;;;;;;1.30;0.50;;;17.60;63.40;;;;;;5122807;28;20122;-41
2021/12/26 11:02:40;;;;;;;1.27;0.60;;;17.60;63.50;;;;;;5123112;28;20028;-40
2021/12/26 11:05:21;;;;;;;0.80;0.60;;;17.60;63.40;;;;;;5122732;28;20024;-41
2021/12/26 11:08:00;;;;;;;0.98;0.60;;;17.60;63.40;;;;;;5123113;28;20039;-40
2021/12/26 11:10:48;;;;;;;1.15;0.50;;;17.60;63.30;;;;;;5122609;28;20133;-40
2021/12/26 11:13:25;;;;;;;1.77;0.57;;;17.60;63.30;;;;;;5112585;28;20039;-40
2021/12/26 11:15:55;;;;;;;0.90;0.50;;;17.60;63.30;;;;;;5119285;28;20024;-40
2021/12/26 11:18:21;;;;;;;1.35;0.50;;;17.60;63.20;;;;;;5122798;28;20055;-40
2021/12/26 11:20:59;;;;;;;1.70;0.73;;;17.50;63.20;;;;;;5121102;28;20031;-40
2021/12/26 11:23:27;;;;;;;0.67;0.50;;;17.50;63.20;;;;;;5122897;28;20642;-40
2021/12/26 11:25:55;;;;;;;0.82;0.50;;;17.50;63.20;;;;;;5122811;28;20071;-41
2021/12/26 11:28:28;;;;;;;0.50;0.50;;;17.50;63.00;;;;;;5124366;28;20023;-40
2021/12/26 11:31:08;;;;;;;0.70;0.40;;;17.60;63.60;;;;;;5126693;28;20030;-41
2021/12/26 11:33:34;;;;;;;1.08;0.40;;;17.60;63.70;;;;;;5127024;28;20038;-41
2021/12/26 11:36:00;;;;;;;1.55;0.50;;;17.60;63.50;;;;;;5126742;28;20035;-40
2021/12/26 11:38:27;;;;;;;0.65;0.40;;;17.70;63.90;;;;;;5125819;28;20027;-40
2021/12/26 11:40:56;;;;;;;0.97;0.60;;;17.60;63.80;;;;;;5126882;28;20095;-41
2021/12/26 11:44:03;;;;;;;1.90;0.50;;;17.60;63.80;;;;;;5115348;28;20314;-40
2021/12/26 11:46:39;;;;;;;1.48;0.50;;;17.60;63.80;;;;;;5042984;28;20038;-40
2021/12/26 11:49:26;;;;;;;1.27;0.45;;;17.60;63.70;;;;;;5027880;28;20052;-40
2021/12/26 11:52:16;;;;;;;0.55;0.47;;;17.60;63.70;;;;;;5042943;28;20045;-40
2021/12/26 11:54:54;;;;;;;0.80;0.43;;;17.60;63.60;;;;;;5043052;28;20029;-40
2021/12/26 11:57:35;;;;;;;1.38;0.50;;;17.60;63.60;;;;;;5059207;28;20056;-40
2021/12/26 12:00:11;;;;;;;2.30;0.70;;;17.60;63.50;;;;;;5062751;28;20029;-40
2021/12/26 12:02:51;;;;;;;0.65;0.47;;;17.50;63.40;;;;;;5062753;28;20029;-41
2021/12/26 12:05:27;;;;;;;1.02;0.40;;;17.50;63.40;;;;;;5042917;28;20030;-42
2021/12/26 12:08:00;;;;;;;0.98;0.43;;;17.60;63.40;;;;;;5042893;28;20039;-40
2021/12/26 12:10:31;;;;;;;0.77;0.40;;;17.50;63.40;;;;;;5062614;28;20099;-40
2021/12/26 12:12:57;;;;;;;1.75;0.60;;;17.50;63.40;;;;;;5062647;28;20029;-41
2021/12/26 12:15:42;;;;;;;0.57;0.47;;;17.50;63.30;;;;;;5062650;28;20106;-40
2021/12/26 12:18:10;;;;;;;0.50;0.43;;;17.50;63.30;;;;;;5062425;28;20021;-40
2021/12/26 12:20:36;;;;;;;1.25;0.60;;;17.60;63.60;;;;;;5062544;28;20044;-41
2021/12/26 12:23:08;;;;;;;0.63;0.43;;;17.60;63.80;;;;;;5097736;28;20062;-43
2021/12/26 12:25:38;;;;;;;0.20;0.20;;;17.60;63.80;;;;;;5125661;28;20042;-41
2021/12/26 12:28:32;;;;;;;3.15;0.70;;;17.60;63.90;;;;;;5125714;28;20069;-40
2021/12/26 12:31:14;;;;;;;0.93;0.47;;;17.60;63.90;;;;;;5123976;28;20035;-40
2021/12/26 12:33:40;;;;;;;0.47;0.47;;;17.60;63.90;;;;;;5125908;28;20023;-40
2021/12/26 12:36:27;;;;;;;0.75;0.43;;;17.60;63.80;;;;;;5125630;27;20027;-40
2021/12/26 12:38:53;;;;;;;0.73;0.57;;;17.50;63.70;;;;;;5118034;28;20048;-40
2021/12/26 12:41:38;;;;;;;1.75;0.50;;;17.50;63.70;;;;;;5105105;28;20040;-40
2021/12/26 12:44:08;;;;;;;0.40;0.30;;;17.50;63.70;;;;;;5122641;28;20061;-41
2021/12/26 12:46:58;;;;;;;0.80;0.50;;;17.50;63.60;;;;;;5125441;28;20515;-41
2021/12/26 12:50:03;;;;;;;0.77;0.47;;;17.50;63.60;;;;;;5125337;28;20031;-40
2021/12/26 12:52:45;;;;;;;0.98;0.43;;;17.50;63.60;;;;;;5061761;28;20723;-41
2021/12/26 12:55:42;;;;;;;0.75;0.47;;;17.50;63.50;;;;;;5061956;28;20513;-42
2021/12/26 12:58:31;;;;;;;2.10;0.50;;;17.50;63.50;;;;;;5061734;28;20061;-40
2021/12/26 13:00:58;;;;;;;0.77;0.50;;;17.50;63.50;;;;;;5061778;28;20024;-41